Date,TemperatureHighF,TemperatureAvgF,TemperatureLowF,DewpointHighF,DewpointAvgF,DewpointLowF,HumidityHigh,HumidityAvg,HumidityLow,PressureMaxIn,PressureMinIn,WindSpeedMaxMPH,WindSpeedAvgMPH,GustSpeedMaxMPH,PrecipitationSumIn
2013-3-1,70.8,55.2,44.2,47.2,45.1,39.1,83,70,42,30.32,30.11,5,0,0,0.00
2013-3-2,72.5,63.0,55.8,50.3,47.6,44.0,75,59,38,30.12,29.93,6,0,0,0.00
2013-3-3,65.4,55.4,44.9,52.5,47.7,42.4,92,76,58,29.97,29.90,6,0,0,0.00
2013-3-4,67.5,55.0,44.8,50.8,46.9,42.2,93,76,50,30.02,29.91,7,0,0,0.00
2013-3-5,64.4,53.1,45.5,44.0,41.2,29.8,92,66,35,29.91,29.74,9,1,0,0.34
2013-3-6,56.9,48.6,40.9,45.4,40.4,37.8,90,74,52,29.96,29.85,8,1,0,0.01
2013-3-7,59.3,49.7,39.9,43.6,40.2,36.7,89,71,48,29.85,29.71,6,1,0,0.00
2013-3-8,65.1,53.6,42.2,44.4,41.1,37.0,89,65,37,30.02,29.71,9,1,0,0.00
2013-3-9,67.3,57.4,42.9,46.0,36.0,30.3,71,46,30,30.20,30.11,14,2,0,0.00
2013-3-10,67.4,55.4,45.9,45.5,43.4,41.3,85,66,42,30.23,30.14,6,0,0,0.00
2013-3-11,72.8,60.1,48.6,48.1,44.8,42.2,83,60,35,30.15,30.00,9,0,0,0.00
2013-3-12,77.6,64.1,51.9,51.4,49.1,45.8,85,61,38,30.06,29.96,6,0,0,0.00
2013-3-13,78.7,66.4,54.1,56.0,50.2,45.3,73,57,41,30.06,29.96,7,0,0,0.00
2013-3-14,80.1,66.9,52.9,54.3,50.3,45.1,80,58,35,30.03,29.95,5,0,0,0.00
2013-3-15,78.2,67.7,55.9,52.2,48.8,45.8,76,52,37,29.98,29.90,6,1,0,0.00
2013-3-16,77.4,60.5,47.8,51.5,44.9,40.9,82,59,31,29.96,29.87,9,0,0,0.00
2013-3-17,72.1,56.4,43.8,45.0,40.3,35.2,79,57,32,30.01,29.91,7,1,0,0.00
2013-3-18,69.5,56.7,45.8,45.0,41.0,36.2,76,57,35,29.99,29.91,6,0,0,0.00
2013-3-19,69.9,57.8,49.6,54.2,46.8,39.2,93,69,33,30.03,29.94,6,0,0,0.18
2013-3-20,58.7,54.3,51.0,56.7,52.2,49.0,96,93,81,30.01,29.97,4,0,0,0.66
2013-3-21,64.1,53.8,47.2,52.5,45.4,31.5,96,76,35,30.00,29.88,12,1,0,0.00
2013-3-22,63.1,50.4,38.8,41.3,32.4,23.4,92,56,25,29.97,29.89,20,2,0,0.00
2013-3-23,68.3,51.2,35.7,38.4,34.5,30.3,84,56,26,30.03,29.93,8,0,0,0.00
2013-3-24,74.0,57.0,44.4,43.4,39.3,35.0,72,54,29,29.98,29.85,8,1,0,0.00
2013-3-25,72.3,57.6,46.6,48.8,44.0,39.5,78,62,41,29.89,29.79,8,0,0,0.00
2013-3-26,72.5,56.9,44.9,49.2,44.7,40.2,88,66,40,29.88,29.80,7,0,0,0.00
2013-3-27,72.7,58.5,48.0,53.9,48.3,43.1,85,70,48,29.91,29.82,10,0,0,0.00
2013-3-28,66.7,59.2,52.5,52.4,50.2,47.2,86,73,53,29.99,29.91,7,0,0,0.00
2013-3-29,79.3,62.9,50.4,53.7,47.9,43.7,83,61,34,29.99,29.90,7,1,0,0.00
2013-3-30,74.4,63.7,53.7,55.7,50.4,46.5,79,63,47,29.93,29.84,7,0,0,0.00
2013-3-31,71.5,59.0,52.2,57.0,51.9,47.6,96,79,47,29.99,29.87,11,0,0,0.93